Isla Saona, Dominican Republic
Current Conditions -  °F | °C
As of 12:00 PM on Sunday 23 Nov 2014 (Local Time) from MDPC Reporting Station
Few Clouds Few Clouds  
Wind Chill: 84°   Ceiling: Unl
Heat Index: 91°   Visibility: 6mi
Dew Point: 73°   Wind: 14mph
Humidity: 70%   Direction: 130°SE
Pressure: 30.03"   Gusts: NA
Location:  18.09°N, 67.89°W
Report Text: MDPC 231600Z 13012KT 9999 FEW020 29/23 Q1017
Loading
Personal Weather Stations






























Interactive Weather Map New forecast layout! Learn more

10-Day Weather Forecast

Advertisements
Track Severe Weather on mobile